Ariadne — SVST — position and weather

sailwx.info

Track history (hours):
 
Tides and Currents Weather Stations Pressure Air Temp Water Temp Dewpoint Dewpoint Depression Visibility Wind Speed Wind Dir Waves Ship Positions

Ariadne

Last reported at 2017-Nov-19 19:23 UTC. Time now 2017-Nov-21 19:34 UTC.
Position N 38°50' E 013°16'.

Length 196 m; draft 6.8 m.

Type: Passenger vessel. MMSI: 240580000.

Date/timePositionNaut miles runAvg speedWind from/ knotsBaromVisibWave heightAir tempDewpointWater temp
2017-Nov-19 19:23N 38°50' E 013°16'920.6
2017-Nov-19 18:58N 38°42' E 013°19'920.4
2017-Nov-19 18:30N 38°32' E 013°21'1020.4
2017-Nov-19 18:00N 38°22' E 013°23'1020.4
2017-Nov-19 17:30N 38°12' E 013°26'510.3
2017-Nov-19 17:01N 38°08' E 013°22'0 0.2
2017-Nov-19 16:30N 38°08' E 013°22'0 0.0
2017-Nov-19 16:00N 38°08' E 013°22'0 0.0
2017-Nov-19 15:30N 38°08' E 013°22'0 0.0
2017-Nov-19 14:59N 38°08' E 013°22'0 0.0
2017-Nov-19 14:29N 38°08' E 013°22'0 0.0
2017-Nov-19 13:59N 38°08' E 013°22'0 0.0
2017-Nov-19 13:28N 38°08' E 013°22'0 0.0
2017-Nov-19 12:58N 38°08' E 013°22'0 0.0
2017-Nov-19 12:28N 38°08' E 013°22'0 0.0
2017-Nov-19 12:00N 38°08' E 013°22'0 0.0
2017-Nov-19 11:30N 38°08' E 013°22'1 2.8
2017-Nov-19 11:00N 38°07' E 013°23'918.9
2017-Nov-19 10:30N 38°17' E 013°21'1121.0
2017-Nov-19 10:00N 38°17' E 013°08'1121.0
2017-Nov-19 09:30N 38°17' E 012°54'13 0.7
2017-Nov-18 13:31N 38°12' E 012°38'220.6
2017-Nov-18 13:26N 38°13' E 012°40'920.6
2017-Nov-18 13:00N 38°14' E 012°51'1020.4
2017-Nov-18 12:30N 38°15' E 013°04'1020.5
2017-Nov-18 12:01N 38°16' E 013°17'918.1
2017-Nov-18 11:30N 38°11' E 013°26'5 8.7
2017-Nov-18 10:59N 38°08' E 013°22'0 0.0
2017-Nov-18 10:28N 38°08' E 013°22'0 0.0
2017-Nov-18 09:58N 38°08' E 013°22'0 0.0
2017-Nov-18 09:25N 38°08' E 013°22'0 0.0
2017-Nov-18 09:00N 38°08' E 013°22'0 0.0
2017-Nov-18 08:30N 38°08' E 013°22'0 0.1
2017-Nov-18 08:01N 38°08' E 013°22'510.2
2017-Nov-18 07:30N 38°13' E 013°24'1121.1
2017-Nov-18 07:00N 38°23' E 013°22'1121.4
2017-Nov-18 06:30N 38°34' E 013°20'15 0.6
2017-Nov-17 04:53N 38°49' E 013°20'820.0
2017-Nov-17 04:30N 38°42' E 013°24'1020.0
2017-Nov-17 04:00N 38°33' E 013°30'1020.1
2017-Nov-17 03:30N 38°23' E 013°35'1020.2
2017-Nov-17 03:00N 38°14' E 013°38'1020.3
2017-Nov-17 02:30N 38°04' E 013°42'5 9.6
2017-Nov-17 02:00N 37°59' E 013°42'0 0.0
2017-Nov-17 01:30N 37°59' E 013°42'0 0.0
2017-Nov-17 01:01N 37°59' E 013°42'0 0.0
2017-Nov-17 00:22N 37°59' E 013°42'0 0.0
2017-Nov-16 23:57N 37°59' E 013°42'0 0.0
2017-Nov-16 23:30N 37°59' E 013°42'0 0.0
2017-Nov-16 22:58N 37°59' E 013°42'0 0.0
2017-Nov-16 22:28N 37°59' E 013°42'0 0.0
2017-Nov-16 21:58N 37°59' E 013°42'0 0.0
2017-Nov-16 21:30N 37°59' E 013°42'1 2.9
2017-Nov-16 21:00N 37°60' E 013°44'1020.8
2017-Nov-16 20:30N 38°10' E 013°39'1121.4
2017-Nov-16 20:00N 38°20' E 013°34'1121.3
2017-Nov-16 19:30N 38°29' E 013°29'1121.3
2017-Nov-16 19:00N 38°39' E 013°24'10 0.3
2017-Nov-15 05:29N 38°49' E 013°20'920.0
2017-Nov-15 05:01N 38°40' E 013°25'1020.0
2017-Nov-15 04:31N 38°31' E 013°30'1020.1
2017-Nov-15 04:00N 38°21' E 013°34'1020.0
2017-Nov-15 03:31N 38°12' E 013°38'1020.4
2017-Nov-15 03:01N 38°02' E 013°42'3 6.0
2017-Nov-15 02:28N 37°59' E 013°42'0 0.0
2017-Nov-15 01:57N 37°59' E 013°42'0 0.0
2017-Nov-15 01:27N 37°59' E 013°42'0 0.0
2017-Nov-15 00:56N 37°59' E 013°42'0 0.0
2017-Nov-15 00:26N 37°59' E 013°42'0 0.0
2017-Nov-14 23:58N 37°59' E 013°42'0 0.0
2017-Nov-14 23:27N 37°59' E 013°42'0 0.0
2017-Nov-14 22:56N 37°59' E 013°42'0 0.0
2017-Nov-14 22:26N 37°59' E 013°42'0 0.0
2017-Nov-14 21:58N 37°59' E 013°42'1 1.8
2017-Nov-14 21:31N 37°59' E 013°43'918.0
2017-Nov-14 21:01N 38°08' E 013°40'1121.0
2017-Nov-14 20:30N 38°17' E 013°35'1021.1
2017-Nov-14 20:01N 38°27' E 013°30'1020.8
2017-Nov-14 19:31N 38°37' E 013°25'8 0.2
2017-Nov-12 19:18N 38°38' E 013°36'620.6
2017-Nov-12 19:00N 38°32' E 013°33'1020.4
2017-Nov-12 18:30N 38°22' E 013°30'1020.3
2017-Nov-12 18:00N 38°12' E 013°27'611.5
2017-Nov-12 17:30N 38°08' E 013°22'0 0.1
2017-Nov-12 16:59N 38°08' E 013°22'0 0.0
2017-Nov-12 16:28N 38°08' E 013°22'0 0.0
2017-Nov-12 15:58N 38°08' E 013°22'0 0.0
2017-Nov-12 15:28N 38°08' E 013°22'0 0.0
2017-Nov-12 15:00N 38°08' E 013°22'0 0.0
2017-Nov-12 14:30N 38°08' E 013°22'0 0.0
2017-Nov-12 14:00N 38°08' E 013°22'0 0.0
2017-Nov-12 13:30N 38°08' E 013°22'0 0.0
2017-Nov-12 12:59N 38°08' E 013°22'2 3.2
2017-Nov-12 12:30N 38°08' E 013°24'918.1
2017-Nov-12 12:00N 38°16' E 013°20'1020.4
2017-Nov-12 11:30N 38°17' E 013°07'1020.4
2017-Nov-12 11:00N 38°17' E 012°54'17 0.8
2017-Nov-11 12:36N 38°16' E 013°17'220.4
2017-Nov-11 12:30N 38°17' E 013°19'918.3
2017-Nov-11 12:00N 38°09' E 013°26'4 7.2
2017-Nov-11 11:30N 38°08' E 013°22'0 0.0
2017-Nov-11 10:56N 38°08' E 013°22'0 0.0
2017-Nov-11 10:23N 38°08' E 013°22'0 0.0
2017-Nov-11 09:59N 38°08' E 013°22'0 0.0
2017-Nov-11 09:25N 38°08' E 013°22'0 0.0
2017-Nov-11 08:55N 38°08' E 013°22'1 3.4
2017-Nov-11 08:30N 38°08' E 013°24'1019.1
2017-Nov-11 08:00N 38°17' E 013°24'9 0.3
2017-Nov-10 03:39N 38°21' E 013°34'420.7
2017-Nov-10 03:27N 38°17' E 013°35'920.7
2017-Nov-10 03:00N 38°08' E 013°40'919.3
2017-Nov-10 02:30N 37°59' E 013°44'1 1.5
2017-Nov-10 01:54N 37°59' E 013°42'0 0.0
2017-Nov-10 01:30N 37°59' E 013°42'0 0.0
2017-Nov-10 00:56N 37°59' E 013°42'0 0.0
2017-Nov-10 00:29N 37°59' E 013°42'0 0.0
2017-Nov-09 23:58N 37°59' E 013°42'0 0.0
2017-Nov-09 23:19N 37°59' E 013°42'0 0.0
2017-Nov-09 22:12N 37°59' E 013°42'0 0.0
2017-Nov-09 21:58N 37°59' E 013°42'0 0.4
2017-Nov-09 21:30N 37°59' E 013°43'612.2
2017-Nov-09 21:00N 38°05' E 013°41'1220.9
2017-Nov-09 20:27N 38°16' E 013°36'1420.7
2017-Nov-09 19:46N 38°29' E 013°29'  
Track history (hours):
 
Tides and Currents Weather Stations Pressure Air Temp Water Temp Dewpoint Dewpoint Depression Visibility Wind Speed Wind Dir Waves Ship Positions

Ariadne

Last reported at 2017-Nov-19 19:23 UTC. Time now 2017-Nov-21 19:34 UTC.
Position N 38°50' E 013°16'.

Length 196 m; draft 6.8 m.

Type: Passenger vessel. MMSI: 240580000.

Date/timePositionNaut miles runAvg speedWind from/ knotsBaromVisibWave heightAir tempDewpointWater temp
2017-Nov-19 19:23N 38°50' E 013°16'920.6
2017-Nov-19 18:58N 38°42' E 013°19'920.4
2017-Nov-19 18:30N 38°32' E 013°21'1020.4
2017-Nov-19 18:00N 38°22' E 013°23'1020.4
2017-Nov-19 17:30N 38°12' E 013°26'510.3
2017-Nov-19 17:01N 38°08' E 013°22'0 0.2
2017-Nov-19 16:30N 38°08' E 013°22'0 0.0
2017-Nov-19 16:00N 38°08' E 013°22'0 0.0
2017-Nov-19 15:30N 38°08' E 013°22'0 0.0
2017-Nov-19 14:59N 38°08' E 013°22'0 0.0
2017-Nov-19 14:29N 38°08' E 013°22'0 0.0
2017-Nov-19 13:59N 38°08' E 013°22'0 0.0
2017-Nov-19 13:28N 38°08' E 013°22'0 0.0
2017-Nov-19 12:58N 38°08' E 013°22'0 0.0
2017-Nov-19 12:28N 38°08' E 013°22'0 0.0
2017-Nov-19 12:00N 38°08' E 013°22'0 0.0
2017-Nov-19 11:30N 38°08' E 013°22'1 2.8
2017-Nov-19 11:00N 38°07' E 013°23'918.9
2017-Nov-19 10:30N 38°17' E 013°21'1121.0
2017-Nov-19 10:00N 38°17' E 013°08'1121.0
2017-Nov-19 09:30N 38°17' E 012°54'13 0.7
2017-Nov-18 13:31N 38°12' E 012°38'220.6
2017-Nov-18 13:26N 38°13' E 012°40'920.6
2017-Nov-18 13:00N 38°14' E 012°51'1020.4
2017-Nov-18 12:30N 38°15' E 013°04'1020.5
2017-Nov-18 12:01N 38°16' E 013°17'918.1
2017-Nov-18 11:30N 38°11' E 013°26'5 8.7
2017-Nov-18 10:59N 38°08' E 013°22'0 0.0
2017-Nov-18 10:28N 38°08' E 013°22'0 0.0
2017-Nov-18 09:58N 38°08' E 013°22'0 0.0
2017-Nov-18 09:25N 38°08' E 013°22'0 0.0
2017-Nov-18 09:00N 38°08' E 013°22'0 0.0
2017-Nov-18 08:30N 38°08' E 013°22'0 0.1
2017-Nov-18 08:01N 38°08' E 013°22'510.2
2017-Nov-18 07:30N 38°13' E 013°24'1121.1
2017-Nov-18 07:00N 38°23' E 013°22'1121.4
2017-Nov-18 06:30N 38°34' E 013°20'15 0.6
2017-Nov-17 04:53N 38°49' E 013°20'820.0
2017-Nov-17 04:30N 38°42' E 013°24'1020.0
2017-Nov-17 04:00N 38°33' E 013°30'1020.1
2017-Nov-17 03:30N 38°23' E 013°35'1020.2
2017-Nov-17 03:00N 38°14' E 013°38'1020.3
2017-Nov-17 02:30N 38°04' E 013°42'5 9.6
2017-Nov-17 02:00N 37°59' E 013°42'0 0.0
2017-Nov-17 01:30N 37°59' E 013°42'0 0.0
2017-Nov-17 01:01N 37°59' E 013°42'0 0.0
2017-Nov-17 00:22N 37°59' E 013°42'0 0.0
2017-Nov-16 23:57N 37°59' E 013°42'0 0.0
2017-Nov-16 23:30N 37°59' E 013°42'0 0.0
2017-Nov-16 22:58N 37°59' E 013°42'0 0.0
2017-Nov-16 22:28N 37°59' E 013°42'0 0.0
2017-Nov-16 21:58N 37°59' E 013°42'0 0.0
2017-Nov-16 21:30N 37°59' E 013°42'1 2.9
2017-Nov-16 21:00N 37°60' E 013°44'1020.8
2017-Nov-16 20:30N 38°10' E 013°39'1121.4
2017-Nov-16 20:00N 38°20' E 013°34'1121.3
2017-Nov-16 19:30N 38°29' E 013°29'1121.3
2017-Nov-16 19:00N 38°39' E 013°24'10 0.3
2017-Nov-15 05:29N 38°49' E 013°20'920.0
2017-Nov-15 05:01N 38°40' E 013°25'1020.0
2017-Nov-15 04:31N 38°31' E 013°30'1020.1
2017-Nov-15 04:00N 38°21' E 013°34'1020.0
2017-Nov-15 03:31N 38°12' E 013°38'1020.4
2017-Nov-15 03:01N 38°02' E 013°42'3 6.0
2017-Nov-15 02:28N 37°59' E 013°42'0 0.0
2017-Nov-15 01:57N 37°59' E 013°42'0 0.0
2017-Nov-15 01:27N 37°59' E 013°42'0 0.0
2017-Nov-15 00:56N 37°59' E 013°42'0 0.0
2017-Nov-15 00:26N 37°59' E 013°42'0 0.0
2017-Nov-14 23:58N 37°59' E 013°42'0 0.0
2017-Nov-14 23:27N 37°59' E 013°42'0 0.0
2017-Nov-14 22:56N 37°59' E 013°42'0 0.0
2017-Nov-14 22:26N 37°59' E 013°42'0 0.0
2017-Nov-14 21:58N 37°59' E 013°42'1 1.8
2017-Nov-14 21:31N 37°59' E 013°43'918.0
2017-Nov-14 21:01N 38°08' E 013°40'1121.0
2017-Nov-14 20:30N 38°17' E 013°35'1021.1
2017-Nov-14 20:01N 38°27' E 013°30'1020.8
2017-Nov-14 19:31N 38°37' E 013°25'8 0.2
2017-Nov-12 19:18N 38°38' E 013°36'620.6
2017-Nov-12 19:00N 38°32' E 013°33'1020.4
2017-Nov-12 18:30N 38°22' E 013°30'1020.3
2017-Nov-12 18:00N 38°12' E 013°27'611.5
2017-Nov-12 17:30N 38°08' E 013°22'0 0.1
2017-Nov-12 16:59N 38°08' E 013°22'0 0.0
2017-Nov-12 16:28N 38°08' E 013°22'0 0.0
2017-Nov-12 15:58N 38°08' E 013°22'0 0.0
2017-Nov-12 15:28N 38°08' E 013°22'0 0.0
2017-Nov-12 15:00N 38°08' E 013°22'0 0.0
2017-Nov-12 14:30N 38°08' E 013°22'0 0.0
2017-Nov-12 14:00N 38°08' E 013°22'0 0.0
2017-Nov-12 13:30N 38°08' E 013°22'0 0.0
2017-Nov-12 12:59N 38°08' E 013°22'2 3.2
2017-Nov-12 12:30N 38°08' E 013°24'918.1
2017-Nov-12 12:00N 38°16' E 013°20'1020.4
2017-Nov-12 11:30N 38°17' E 013°07'1020.4
2017-Nov-12 11:00N 38°17' E 012°54'17 0.8
2017-Nov-11 12:36N 38°16' E 013°17'220.4
2017-Nov-11 12:30N 38°17' E 013°19'918.3
2017-Nov-11 12:00N 38°09' E 013°26'4 7.2
2017-Nov-11 11:30N 38°08' E 013°22'0 0.0
2017-Nov-11 10:56N 38°08' E 013°22'0 0.0
2017-Nov-11 10:23N 38°08' E 013°22'0 0.0
2017-Nov-11 09:59N 38°08' E 013°22'0 0.0
2017-Nov-11 09:25N 38°08' E 013°22'0 0.0
2017-Nov-11 08:55N 38°08' E 013°22'1 3.4
2017-Nov-11 08:30N 38°08' E 013°24'1019.1
2017-Nov-11 08:00N 38°17' E 013°24'9 0.3
2017-Nov-10 03:39N 38°21' E 013°34'420.7
2017-Nov-10 03:27N 38°17' E 013°35'920.7
2017-Nov-10 03:00N 38°08' E 013°40'919.3
2017-Nov-10 02:30N 37°59' E 013°44'1 1.5
2017-Nov-10 01:54N 37°59' E 013°42'0 0.0
2017-Nov-10 01:30N 37°59' E 013°42'0 0.0
2017-Nov-10 00:56N 37°59' E 013°42'0 0.0
2017-Nov-10 00:29N 37°59' E 013°42'0 0.0
2017-Nov-09 23:58N 37°59' E 013°42'0 0.0
2017-Nov-09 23:19N 37°59' E 013°42'0 0.0
2017-Nov-09 22:12N 37°59' E 013°42'0 0.0
2017-Nov-09 21:58N 37°59' E 013°42'0 0.4
2017-Nov-09 21:30N 37°59' E 013°43'612.2
2017-Nov-09 21:00N 38°05' E 013°41'1220.9
2017-Nov-09 20:27N 38°16' E 013°36'1420.7
2017-Nov-09 19:46N 38°29' E 013°29'  

Dump ship's entire track history